createdAt,value
2023-01-17T00:00:02.000Z,103.34
2023-01-17T00:05:02.000Z,102.73
2023-01-17T00:10:03.000Z,103.99
2023-01-17T00:45:17.000Z,104.04
2023-01-17T00:45:47.000Z,104.07
2023-01-17T00:50:02.000Z,104.04
2023-01-17T00:55:02.000Z,104.04
2023-01-17T01:00:02.000Z,104.01
2023-01-17T01:05:02.000Z,104.04
2023-01-17T01:10:03.000Z,104.01
2023-01-17T01:15:02.000Z,103.92
2023-01-17T01:20:02.000Z,103.95
2023-01-17T01:25:02.000Z,102.86
2023-01-17T01:30:02.000Z,103.83
2023-01-17T01:35:02.000Z,103.95
2023-01-17T01:40:02.000Z,104.11
2023-01-17T01:45:02.000Z,104.17
2023-01-17T01:50:03.000Z,104.25
2023-01-17T01:55:02.000Z,104.18
2023-01-17T02:00:02.000Z,104.12
2023-01-17T02:05:02.000Z,104.08
2023-01-17T02:10:03.000Z,104.02
2023-01-17T02:15:02.000Z,103.95
2023-01-17T02:20:02.000Z,103.92
2023-01-17T02:25:02.000Z,103.95
2023-01-17T02:30:02.000Z,103.92
2023-01-17T02:35:02.000Z,103.92
2023-01-17T02:40:02.000Z,103.95
2023-01-17T02:45:02.000Z,103.98
2023-01-17T02:50:02.000Z,104.01
2023-01-17T02:55:02.000Z,102.73
2023-01-17T03:00:02.000Z,102.79
2023-01-17T03:05:02.000Z,102.85
2023-01-17T03:10:03.000Z,103.05
2023-01-17T03:15:03.000Z,104.26
2023-01-17T03:20:02.000Z,104.21
2023-01-17T03:25:02.000Z,104.23
2023-01-17T03:30:02.000Z,104.23
2023-01-17T03:35:02.000Z,104.23
2023-01-17T03:40:02.000Z,104.26
2023-01-17T03:45:02.000Z,104.23
2023-01-17T03:50:03.000Z,104.20
2023-01-17T03:55:03.000Z,104.17
2023-01-17T04:00:02.000Z,104.17
2023-01-17T04:05:03.000Z,104.23
2023-01-17T04:10:03.000Z,104.18
2023-01-17T04:15:03.000Z,104.04
2023-01-17T04:20:02.000Z,103.84
2023-01-17T04:25:03.000Z,103.96
2023-01-17T04:30:03.000Z,104.01
2023-01-17T04:35:04.000Z,104.02
2023-01-17T04:40:04.000Z,104.18
2023-01-17T04:45:03.000Z,104.15
2023-01-17T04:50:03.000Z,104.24
2023-01-17T04:55:03.000Z,104.24
2023-01-17T05:00:03.000Z,104.24
2023-01-17T05:05:03.000Z,104.21
2023-01-17T05:10:03.000Z,104.33
2023-01-17T05:15:03.000Z,104.39
2023-01-17T05:20:03.000Z,104.36
2023-01-17T05:25:02.000Z,104.25
2023-01-17T05:30:03.000Z,104.24
2023-01-17T05:35:03.000Z,103.52
2023-01-17T05:40:03.000Z,102.90
2023-01-17T05:45:03.000Z,103.37
2023-01-17T05:50:03.000Z,102.96
2023-01-17T05:55:03.000Z,103.99
2023-01-17T06:00:02.000Z,102.82
2023-01-17T06:05:02.000Z,102.76
2023-01-17T06:10:02.000Z,103.08
2023-01-17T06:15:02.000Z,102.63
2023-01-17T06:20:03.000Z,102.96
2023-01-17T06:25:03.000Z,103.23
2023-01-17T06:30:03.000Z,103.98
2023-01-17T06:35:03.000Z,104.43
2023-01-17T06:40:03.000Z,104.46
2023-01-17T06:45:03.000Z,104.40
2023-01-17T06:50:03.000Z,104.40
2023-01-17T06:55:03.000Z,104.49
2023-01-17T07:00:03.000Z,104.39
2023-01-17T07:05:02.000Z,103.10
2023-01-17T07:10:03.000Z,103.13
2023-01-17T07:15:03.000Z,102.93
2023-01-17T07:20:03.000Z,103.06
2023-01-17T07:25:03.000Z,103.01
2023-01-17T07:30:03.000Z,102.92
2023-01-17T07:35:03.000Z,104.35
2023-01-17T07:40:02.000Z,104.38
2023-01-17T07:45:03.000Z,104.29
2023-01-17T07:50:03.000Z,104.29
2023-01-17T07:55:03.000Z,104.13
2023-01-17T08:00:03.000Z,104.22
2023-01-17T08:05:03.000Z,104.35
2023-01-17T08:10:03.000Z,104.34
2023-01-17T08:15:03.000Z,104.28
2023-01-17T08:20:03.000Z,104.17
2023-01-17T08:25:03.000Z,103.83
2023-01-17T08:30:02.000Z,104.15
2023-01-17T08:35:02.000Z,104.05
2023-01-17T08:40:02.000Z,104.21
2023-01-17T08:45:02.000Z,104.26
2023-01-17T08:50:03.000Z,104.29
2023-01-17T08:55:02.000Z,104.29
2023-01-17T09:00:02.000Z,104.23
2023-01-17T09:05:02.000Z,104.25
2023-01-17T09:10:03.000Z,104.25
2023-01-17T09:15:02.000Z,104.22
2023-01-17T09:20:03.000Z,104.31
2023-01-17T09:25:02.000Z,104.24
2023-01-17T09:30:02.000Z,104.24
2023-01-17T09:35:03.000Z,104.15
2023-01-17T09:40:03.000Z,103.84
2023-01-17T09:45:02.000Z,103.09
2023-01-17T09:50:02.000Z,103.18
2023-01-17T09:55:02.000Z,102.80
2023-01-17T10:00:02.000Z,103.05
2023-01-17T10:05:02.000Z,102.91
2023-01-17T10:10:03.000Z,103.19
2023-01-17T10:15:02.000Z,102.61
2023-01-17T10:20:02.000Z,102.64
2023-01-17T10:25:03.000Z,102.99
2023-01-17T10:30:03.000Z,102.61
2023-01-17T10:35:03.000Z,102.64
2023-01-17T10:40:03.000Z,102.06
2023-01-17T10:45:02.000Z,102.84
2023-01-17T10:50:02.000Z,102.43
2023-01-17T10:55:02.000Z,102.23
2023-01-17T11:00:03.000Z,102.15
2023-01-17T11:05:02.000Z,102.00
2023-01-17T11:10:03.000Z,102.12
2023-01-17T11:15:02.000Z,102.63
2023-01-17T11:20:03.000Z,102.20
2023-01-17T11:25:02.000Z,101.79
2023-01-17T11:30:03.000Z,101.64
2023-01-17T11:35:02.000Z,101.68
2023-01-17T11:40:02.000Z,101.03
2023-01-17T11:45:02.000Z,101.00
2023-01-17T11:50:02.000Z,101.03
2023-01-17T11:55:03.000Z,100.95
2023-01-17T12:00:03.000Z,100.74
2023-01-17T12:05:02.000Z,100.77
2023-01-17T12:10:02.000Z,100.63
2023-01-17T12:15:03.000Z,100.35
2023-01-17T12:20:03.000Z,100.35
2023-01-17T12:25:03.000Z,100.80
2023-01-17T12:30:03.000Z,100.66
2023-01-17T12:35:03.000Z,100.75
2023-01-17T12:40:03.000Z,100.86
2023-01-17T12:45:03.000Z,101.19
2023-01-17T12:50:03.000Z,100.93
2023-01-17T12:55:03.000Z,100.79
2023-01-17T13:00:03.000Z,100.74
2023-01-17T13:05:03.000Z,101.49
2023-01-17T13:10:03.000Z,100.99
2023-01-17T13:15:03.000Z,101.40
2023-01-17T13:20:03.000Z,101.81
2023-01-17T13:25:03.000Z,101.57
2023-01-17T13:30:03.000Z,101.41
2023-01-17T13:35:03.000Z,101.46
2023-01-17T13:40:03.000Z,101.58
2023-01-17T13:45:03.000Z,101.61
2023-01-17T13:50:03.000Z,101.81
2023-01-17T13:55:03.000Z,101.93
2023-01-17T14:00:04.000Z,102.01
2023-01-17T14:05:03.000Z,102.04
2023-01-17T14:10:03.000Z,102.28
2023-01-17T14:15:03.000Z,102.44
2023-01-17T14:20:03.000Z,102.54
2023-01-17T14:25:03.000Z,102.39
2023-01-17T14:30:03.000Z,102.12
2023-01-17T14:35:03.000Z,103.05
2023-01-17T14:40:03.000Z,102.15
2023-01-17T14:45:03.000Z,102.07
2023-01-17T14:50:03.000Z,102.13
2023-01-17T14:55:03.000Z,102.22
2023-01-17T15:00:03.000Z,102.22
2023-01-17T15:05:03.000Z,102.36
2023-01-17T15:10:03.000Z,102.68
2023-01-17T15:15:03.000Z,103.26
2023-01-17T15:20:03.000Z,102.89
2023-01-17T15:25:03.000Z,102.71
2023-01-17T15:30:03.000Z,102.83
2023-01-17T15:35:03.000Z,104.19
2023-01-17T15:40:03.000Z,104.25
2023-01-17T15:45:03.000Z,104.23
2023-01-17T15:50:03.000Z,104.26
2023-01-17T15:55:03.000Z,104.29
2023-01-17T16:00:03.000Z,104.32
2023-01-17T16:05:03.000Z,104.35
2023-01-17T16:10:03.000Z,104.39
2023-01-17T16:15:03.000Z,104.39
2023-01-17T16:20:03.000Z,104.39
2023-01-17T16:25:03.000Z,104.44
2023-01-17T16:30:03.000Z,104.40
2023-01-17T16:35:03.000Z,104.35
2023-01-17T16:40:03.000Z,104.35
2023-01-17T16:45:03.000Z,104.35
2023-01-17T16:50:03.000Z,104.32
2023-01-17T16:55:03.000Z,104.35
2023-01-17T17:00:03.000Z,104.35
2023-01-17T17:05:03.000Z,104.35
2023-01-17T17:10:03.000Z,104.39
2023-01-17T17:15:03.000Z,104.35
2023-01-17T17:20:03.000Z,104.35
2023-01-17T17:25:03.000Z,104.35
2023-01-17T17:30:03.000Z,104.32
2023-01-17T17:35:03.000Z,104.32
2023-01-17T17:40:03.000Z,104.32
2023-01-17T17:45:03.000Z,104.32
2023-01-17T17:50:03.000Z,104.29
2023-01-17T17:55:03.000Z,104.26
2023-01-17T18:00:03.000Z,104.29
2023-01-17T18:05:03.000Z,104.23
2023-01-17T18:10:03.000Z,104.21
2023-01-17T18:15:03.000Z,104.26
2023-01-17T18:20:03.000Z,104.23
2023-01-17T18:25:03.000Z,104.23
2023-01-17T18:30:03.000Z,104.25
2023-01-17T18:35:03.000Z,104.25
2023-01-17T18:40:03.000Z,104.25
2023-01-17T18:45:03.000Z,104.22
2023-01-17T18:50:03.000Z,104.25
2023-01-17T18:55:03.000Z,104.20
2023-01-17T19:00:03.000Z,104.23
2023-01-17T19:05:03.000Z,104.23
2023-01-17T19:10:03.000Z,104.26
2023-01-17T19:15:03.000Z,104.26
2023-01-17T19:20:03.000Z,104.26
2023-01-17T19:25:03.000Z,104.23
2023-01-17T19:30:03.000Z,104.23
2023-01-17T19:35:03.000Z,104.23
2023-01-17T19:40:03.000Z,104.20
2023-01-17T19:45:03.000Z,104.20
2023-01-17T19:50:03.000Z,104.20
2023-01-17T19:55:03.000Z,104.20
2023-01-17T20:00:03.000Z,104.18
2023-01-17T20:05:03.000Z,104.26
2023-01-17T20:10:03.000Z,104.18
2023-01-17T20:15:03.000Z,104.23
2023-01-17T20:20:03.000Z,104.21
2023-01-17T20:25:03.000Z,104.24
2023-01-17T20:30:03.000Z,104.21
2023-01-17T20:35:03.000Z,104.23
2023-01-17T20:40:03.000Z,104.20
2023-01-17T20:45:03.000Z,104.20
2023-01-17T20:50:03.000Z,104.17
2023-01-17T20:55:03.000Z,104.20
2023-01-17T21:00:03.000Z,104.20
2023-01-17T21:05:03.000Z,104.17
2023-01-17T21:10:03.000Z,104.20
2023-01-17T21:15:03.000Z,104.15
2023-01-17T21:20:03.000Z,104.20
2023-01-17T21:25:03.000Z,104.18
2023-01-17T21:30:03.000Z,104.18
2023-01-17T21:35:03.000Z,104.15
2023-01-17T21:40:03.000Z,104.15
2023-01-17T21:45:03.000Z,104.20
2023-01-17T21:50:03.000Z,103.67
2023-01-17T21:55:04.000Z,104.23
2023-01-17T22:00:03.000Z,104.17
2023-01-17T22:05:03.000Z,103.84
2023-01-17T22:10:03.000Z,103.38
2023-01-17T22:15:03.000Z,103.81
2023-01-17T22:20:03.000Z,103.61
2023-01-17T22:25:03.000Z,103.61
2023-01-17T22:30:03.000Z,103.42
2023-01-17T22:35:03.000Z,103.32
2023-01-17T22:40:03.000Z,104.08
2023-01-17T22:45:03.000Z,104.28
2023-01-17T22:50:03.000Z,104.28
2023-01-17T22:55:03.000Z,104.28
2023-01-17T23:00:04.000Z,104.39
2023-01-17T23:05:03.000Z,104.21
2023-01-17T23:10:03.000Z,104.21
2023-01-17T23:15:03.000Z,104.23
2023-01-17T23:20:03.000Z,104.23
2023-01-17T23:25:03.000Z,104.23
2023-01-17T23:30:03.000Z,104.23
2023-01-17T23:35:03.000Z,104.18
2023-01-17T23:40:03.000Z,104.18
2023-01-17T23:45:03.000Z,104.18
2023-01-17T23:50:03.000Z,104.18
2023-01-17T23:55:03.000Z,104.17
